x

Western Prince William Sound (46081) Wave Buoy

10:50am - Wed 22nd Feb 2017 All times are UTC.

  • Sig Wave height 0.7ft
  • Average Period 2s
  • Wind
    18mph, 22mph gusts
  • Sea Temp 39°f
  • Air Temp 26°f
  • Sea Pressure 1023.4mb

More Historic Weather Station data

Upgrade to MSW Pro to gain access to the past 30 days of data for over 8000 Wavebouys and Weather Stations around the globe.

Join Pro

Comparision Forecast

View Surf forecast
   
Wed 02/22 10:50am 0.7ft  -  2s 18 22 mph 1023.4mb 39f 26f
9:50am 0.3ft  -  2s 16 18 mph 1023.4mb 39f 26f
8:50am 0.3ft  -  2s 9 11 mph 1023.6mb 39f 25f
7:50am  -   -  2s 7 9 mph 1023mb 39f 27f
6:50am  -   -  2s 4 7 mph 1022.6mb 39f 26f
5:50am  -   -  2s 9 11 mph 1022.4mb 40f 26f
4:50am  -   -  2s 9 13 mph 1022mb 40f 26f
3:50am 0.3ft  -  2s 7 11 mph 1021.6mb 40f 25f
2:50am 0.3ft  -  2s 9 11 mph 1021.1mb 40f 25f
1:50am 0.3ft  -  3s 11 13 mph 1020.6mb 40f 26f
12:50am 1ft 2s 3s 16 18 mph 1019.9mb 40f 25f
Tue 02/21 11:50pm 1ft 3s 3s 18 20 mph 1019.4mb 41f 25f
10:50pm 1.3ft 3s 3s 20 22 mph 1019.1mb 41f 24f
9:50pm 1.6ft 3s 3s 22 27 mph 1018.6mb 41f 23f
8:50pm 2ft 3s 3s 25 31 mph 1017.7mb 41f 23f
7:50pm 2ft 3s 3s 25 29 mph 1016.8mb 41f 23f
6:50pm 2.5ft 3s 3s 27 31 mph 1015.9mb 40f 22f
5:50pm 2.5ft 3s 3s 27 31 mph 1015.1mb 40f 22f
4:50pm 2.5ft 3s 3s 27 34 mph 1014.2mb 40f 22f
3:50pm 2.5ft 3s 3s 27 34 mph 1013.3mb 40f 22f
2:50pm 2.5ft 3s 3s 29 34 mph 1012.5mb 40f 23f
1:50pm 2.5ft 3s 3s 27 34 mph 1011.9mb 40f 23f
12:50pm 2.5ft 3s 3s 27 34 mph 1011.2mb 40f 23f
11:50am 2.5ft 3s 3s 25 31 mph 1010.6mb 40f 23f
10:50am 2ft 3s 3s 25 29 mph 1010mb 40f 23f
9:50am 1.6ft 3s 3s 22 31 mph 1009.2mb 40f 23f
8:50am 2ft 3s 3s 25 29 mph 1008.5mb 40f 23f
7:50am 1.6ft 3s 3s 25 29 mph 1008mb 40f 24f
6:50am 1.6ft 3s 3s 22 27 mph 1007.5mb 40f 24f
5:50am 2ft 3s 3s 25 29 mph 1006.8mb 40f 24f
4:50am 1.6ft 3s 3s 25 31 mph 1006.4mb 40f 25f
3:50am 1.6ft 3s 3s 25 29 mph 1006.2mb 40f 25f
2:50am 1.6ft 3s 3s 25 29 mph 1005.8mb 40f 25f
1:50am 1.3ft 3s 3s 22 29 mph 1005.5mb 40f 26f
12:50am 1.3ft 3s 3s 22 27 mph 1005.7mb 40f 26f
Mon 02/20 11:50pm 1.3ft 3s 3s 22 27 mph 1005.6mb 40f 26f
10:50pm 1.3ft 3s 3s 22 27 mph 1005.5mb 40f 26f
9:50pm 1.6ft 3s 3s 22 27 mph 1005.3mb 40f 27f
8:50pm 1.6ft 3s 3s 22 25 mph 1005mb 40f 28f
7:50pm 1.6ft 3s 3s 25 29 mph 1004.7mb 40f 28f
6:50pm 1.6ft 3s 3s 25 29 mph 1004.4mb 40f 27f
5:50pm 1.3ft 3s 3s 22 27 mph 1004.1mb 40f 27f
4:50pm 1.6ft 3s 3s 25 27 mph 1003.6mb 40f 27f
3:50pm 1.3ft 3s 3s 22 27 mph 1003.6mb 40f 27f
2:50pm 1.6ft 3s 3s 22 27 mph 1003.5mb 40f 27f
1:50pm 1.6ft 3s 3s 22 25 mph 1003.3mb 40f 28f
12:50pm 1.3ft 3s 3s 22 27 mph 1003.1mb 40f 28f
11:50am 1.6ft 3s 3s 22 27 mph 1003.2mb 40f 28f
10:50am 1.3ft 3s 3s 22 29 mph 1003.2mb 40f 28f
9:50am 1.3ft 3s 3s 22 27 mph 1003.1mb 40f 27f
8:50am 1.3ft 3s 3s 20 25 mph 1003.1mb 40f 28f
7:50am 1ft 3s 3s 20 25 mph 1002.9mb 40f 29f
6:50am 1ft 2s 3s 16 22 mph 1002.6mb 40f 30f
5:50am 0.7ft  -  2s 18 22 mph 1002.5mb 40f 30f
4:50am 0.7ft  -  2s 16 20 mph 1002.5mb 40f 30f
3:50am 0.7ft  -  2s 13 18 mph 1002.4mb 40f 31f
2:50am 0.3ft  -  2s 11 16 mph 1002.5mb 40f 31f
1:50am 0.3ft  -  2s 13 16 mph 1002.3mb 40f 31f
12:50am 0.3ft  -  2s 16 18 mph 1002.4mb 40f 31f
Sun 02/19 11:50pm 0.3ft  -  2s 11 13 mph 1002.3mb 40f 31f
10:50pm 0.3ft  -  2s 11 13 mph 1002.2mb 40f 33f
9:50pm 0.7ft  -  2s 16 18 mph 1002.1mb 40f 33f
8:50pm 0.7ft  -  2s 16 18 mph 1002.1mb 39f 33f
7:50pm 0.7ft  -  3s 16 20 mph 1002mb 39f 33f
6:50pm 0.3ft  -  2s 7 13 mph 1002mb 39f 32f
5:50pm 0.3ft  -  2s 11 13 mph 1001.9mb 39f 31f
4:50pm  -   -  3s 4 9 mph 1001.8mb 39f 32f
3:50pm  -   -  3s 4
mph
1001.9mb 39f 33f
2:50pm  -   -  3s 4 7 mph 1001.8mb 40f 34f
1:50pm  -   -  3s 4 7 mph 1002.3mb 40f 34f
12:50pm  -   -  3s 2 4 mph 1002.5mb 40f 34f
11:50am  -   -  3s 2 4 mph 1002.8mb 40f 34f
10:50am  -   -  3s 2 4 mph 1003.1mb 40f 34f
9:50am  -   -  2s 4 7 mph 1003.2mb 40f 34f
8:50am  -   -  2s 4 7 mph 1003.5mb 40f 34f
7:50am  -   -  2s 4 7 mph 1003.6mb 40f 35f
6:50am 0.3ft  -  2s 7 9 mph 1003.6mb 40f 35f
5:50am 0.3ft  -  2s 2 4 mph 1003.6mb 40f 35f